createdAt,value
2022-11-15T00:01:30.540Z,12.29
2022-11-15T00:04:15.769Z,12.28
2022-11-15T00:07:01.051Z,12.31
2022-11-15T00:09:46.366Z,12.23
2022-11-15T00:12:31.776Z,12.29
2022-11-15T00:15:17.222Z,12.35
2022-11-15T00:18:03.556Z,12.31
2022-11-15T00:20:48.592Z,12.49
2022-11-15T00:23:34.549Z,12.36
2022-11-15T00:26:20.052Z,12.26
2022-11-15T00:29:05.373Z,12.50
2022-11-15T00:31:50.606Z,12.33
2022-11-15T00:34:36.031Z,12.20
2022-11-15T00:37:21.172Z,12.23
2022-11-15T00:40:07.119Z,12.30
2022-11-15T00:42:52.448Z,12.22
2022-11-15T00:45:37.526Z,12.31
2022-11-15T00:48:22.758Z,12.18
2022-11-15T00:51:07.846Z,12.01
2022-11-15T00:53:53.241Z,11.97
2022-11-15T00:56:38.330Z,11.88
2022-11-15T00:59:23.534Z,11.83
2022-11-15T01:02:08.694Z,11.72
2022-11-15T01:04:53.926Z,11.75
2022-11-15T01:07:39.243Z,11.82
2022-11-15T01:10:24.874Z,11.49
2022-11-15T01:13:10.048Z,11.45
2022-11-15T01:15:55.836Z,11.62
2022-11-15T01:18:41.697Z,11.57
2022-11-15T01:21:27.021Z,11.53
2022-11-15T01:24:14.005Z,11.53
2022-11-15T01:26:58.828Z,11.61
2022-11-15T01:29:43.901Z,11.74
2022-11-15T01:32:29.185Z,11.67
2022-11-15T01:35:14.316Z,11.57
2022-11-15T01:37:59.545Z,11.49
2022-11-15T01:40:44.533Z,11.34
2022-11-15T01:43:35.188Z,11.39
2022-11-15T01:46:32.644Z,11.08
2022-11-15T01:49:20.931Z,10.93
2022-11-15T01:52:10.181Z,10.88
2022-11-15T01:55:06.895Z,10.91
2022-11-15T01:57:54.879Z,10.97
2022-11-15T02:00:40.111Z,11.00
2022-11-15T02:03:35.127Z,10.84
2022-11-15T02:06:21.260Z,10.89
2022-11-15T02:09:06.968Z,10.97
2022-11-15T02:11:52.980Z,10.89
2022-11-15T02:14:39.613Z,11.01
2022-11-15T02:17:52.173Z,11.02
2022-11-15T02:20:44.577Z,10.95
2022-11-15T02:23:44.139Z,11.05
2022-11-15T02:27:00.413Z,11.13
2022-11-15T02:30:19.440Z,11.13
2022-11-15T02:33:12.570Z,11.17
2022-11-15T02:36:19.327Z,11.04
2022-11-15T02:39:14.610Z,11.18
2022-11-15T02:42:45.274Z,11.10
2022-11-15T02:45:34.367Z,11.09
2022-11-15T02:48:21.060Z,10.76
2022-11-15T02:51:06.841Z,10.89
2022-11-15T02:53:51.879Z,11.04
2022-11-15T02:56:36.981Z,11.04
2022-11-15T02:59:57.916Z,11.16
2022-11-15T03:02:43.389Z,11.05
2022-11-15T03:05:38.508Z,11.04
2022-11-15T03:08:29.912Z,10.92
2022-11-15T03:11:17.397Z,11.10
2022-11-15T03:14:29.868Z,11.15
2022-11-15T03:17:31.746Z,10.75
2022-11-15T03:20:18.834Z,10.62
2022-11-15T03:23:09.755Z,10.57
2022-11-15T03:25:56.298Z,10.74
2022-11-15T03:29:10.084Z,10.54
2022-11-15T03:32:01.664Z,10.27
2022-11-15T03:35:01.980Z,10.17
2022-11-15T03:37:54.335Z,10.37
2022-11-15T03:40:41.945Z,10.28
2022-11-15T03:43:47.566Z,10.27
2022-11-15T03:46:35.308Z,10.18
2022-11-15T03:49:28.656Z,10.46
2022-11-15T03:52:13.976Z,10.32
2022-11-15T03:55:01.060Z,10.46
2022-11-15T03:57:47.144Z,10.48
2022-11-15T04:00:32.439Z,10.50
2022-11-15T04:03:18.075Z,10.38
2022-11-15T04:06:03.338Z,10.20
2022-11-15T04:08:48.877Z,10.08
2022-11-15T04:11:34.016Z,10.10
2022-11-15T04:14:19.413Z,10.31
2022-11-15T04:17:04.464Z,10.28
2022-11-15T04:20:08.719Z,10.70
2022-11-15T04:23:16.745Z,10.38
2022-11-15T04:26:05.439Z,10.24
2022-11-15T04:29:09.259Z,10.49
2022-11-15T04:31:54.578Z,10.38
2022-11-15T04:34:39.578Z,10.37
2022-11-15T04:37:24.848Z,10.29
2022-11-15T04:40:11.413Z,10.23
2022-11-15T04:43:03.250Z,10.29
2022-11-15T04:45:48.908Z,10.43
2022-11-15T04:48:33.881Z,10.40
2022-11-15T04:51:19.409Z,10.40
2022-11-15T04:54:04.698Z,10.35
2022-11-15T04:56:51.304Z,10.28
2022-11-15T04:59:36.471Z,10.11
2022-11-15T05:02:22.111Z,10.12
2022-11-15T05:05:07.686Z,10.07
2022-11-15T05:07:52.690Z,9.88
2022-11-15T05:10:38.335Z,9.89
2022-11-15T05:13:23.440Z,9.88
2022-11-15T05:16:08.524Z,9.85
2022-11-15T05:18:54.669Z,9.92
2022-11-15T05:21:40.245Z,9.90
2022-11-15T05:24:25.768Z,9.93
2022-11-15T05:27:11.043Z,9.79
2022-11-15T05:29:56.432Z,9.87
2022-11-15T05:32:41.791Z,9.75
2022-11-15T05:35:32.661Z,9.55
2022-11-15T05:38:17.676Z,9.63
2022-11-15T05:41:03.467Z,9.59
2022-11-15T05:43:49.843Z,9.43
2022-11-15T05:46:35.897Z,9.58
2022-11-15T05:49:23.372Z,9.52
2022-11-15T05:52:11.168Z,9.53
2022-11-15T05:54:57.921Z,9.56
2022-11-15T05:57:43.646Z,9.63
2022-11-15T06:00:29.503Z,9.63
2022-11-15T06:03:15.154Z,9.52
2022-11-15T06:06:00.432Z,9.43
2022-11-15T06:08:45.741Z,9.54
2022-11-15T06:11:30.929Z,9.59
2022-11-15T06:14:16.565Z,9.57
2022-11-15T06:17:08.576Z,9.64
2022-11-15T06:19:56.091Z,9.61
2022-11-15T06:22:41.320Z,9.51
2022-11-15T06:25:27.813Z,9.61
2022-11-15T06:28:13.231Z,9.63
2022-11-15T06:31:10.182Z,9.77
2022-11-15T06:33:55.439Z,9.78
2022-11-15T06:36:42.583Z,9.90
2022-11-15T06:39:28.051Z,9.95
2022-11-15T06:42:13.307Z,9.88
2022-11-15T06:45:02.834Z,9.85
2022-11-15T06:47:48.645Z,9.77
2022-11-15T06:50:33.839Z,9.83
2022-11-15T06:53:19.139Z,9.84
2022-11-15T06:56:10.244Z,9.89
2022-11-15T06:58:56.459Z,9.86
2022-11-15T07:02:13.751Z,10.00
2022-11-15T07:05:01.931Z,9.96
2022-11-15T07:07:53.842Z,9.90
2022-11-15T07:10:38.900Z,9.84
2022-11-15T07:13:35.572Z,9.88
2022-11-15T07:16:21.771Z,9.99
2022-11-15T07:19:07.146Z,10.01
2022-11-15T07:21:52.455Z,10.16
2022-11-15T07:24:42.342Z,10.18
2022-11-15T07:27:27.592Z,10.23
2022-11-15T07:30:15.572Z,10.29
2022-11-15T07:33:02.013Z,10.22
2022-11-15T07:35:50.972Z,10.32
2022-11-15T07:38:42.397Z,10.35
2022-11-15T07:41:30.872Z,10.39
2022-11-15T07:44:16.433Z,10.53
2022-11-15T07:47:01.567Z,10.73
2022-11-15T07:49:47.777Z,10.77
2022-11-15T07:52:32.997Z,10.88
2022-11-15T07:55:18.305Z,11.09
2022-11-15T07:58:09.937Z,11.35
2022-11-15T08:00:55.083Z,11.55
2022-11-15T08:03:40.270Z,11.77
2022-11-15T08:06:25.662Z,12.09
2022-11-15T08:09:10.730Z,12.25
2022-11-15T08:11:56.894Z,12.35
2022-11-15T08:14:42.066Z,12.44
2022-11-15T08:17:27.269Z,12.61
2022-11-15T08:20:12.516Z,12.60
2022-11-15T08:23:02.713Z,12.95
2022-11-15T08:25:47.740Z,13.26
2022-11-15T08:28:33.536Z,13.38
2022-11-15T08:31:19.268Z,13.38
2022-11-15T08:34:05.681Z,13.24
2022-11-15T08:36:51.034Z,13.30
2022-11-15T08:39:36.304Z,13.40
2022-11-15T08:42:21.696Z,13.49
2022-11-15T08:45:08.517Z,13.30
2022-11-15T08:47:54.588Z,13.24
2022-11-15T08:50:39.972Z,13.29
2022-11-15T08:53:25.375Z,13.34
2022-11-15T08:56:14.969Z,13.26
2022-11-15T08:59:01.547Z,13.30
2022-11-15T09:01:46.947Z,13.35
2022-11-15T09:04:32.155Z,13.30
2022-11-15T09:07:17.836Z,13.59
2022-11-15T09:10:04.143Z,13.72
2022-11-15T09:12:49.583Z,13.89
2022-11-15T09:15:35.313Z,13.99
2022-11-15T09:18:23.452Z,14.32
2022-11-15T09:21:09.589Z,14.30
2022-11-15T09:23:55.001Z,14.50
2022-11-15T09:26:40.761Z,14.74
2022-11-15T09:29:26.042Z,14.83
2022-11-15T09:32:11.138Z,14.93
2022-11-15T09:34:56.877Z,15.12
2022-11-15T09:37:41.793Z,15.20
2022-11-15T09:40:27.348Z,15.40
2022-11-15T09:43:48.491Z,15.45
2022-11-15T09:46:51.793Z,15.72
2022-11-15T09:49:43.314Z,15.95
2022-11-15T09:52:25.713Z,15.87
2022-11-15T09:54:55.490Z,15.88
2022-11-15T09:57:32.771Z,15.79
2022-11-15T10:03:22.964Z,15.79
2022-11-15T10:05:50.586Z,15.83
2022-11-15T10:08:22.346Z,15.93
2022-11-15T10:10:49.695Z,15.92
2022-11-15T10:13:21.269Z,16.18
2022-11-15T10:15:49.280Z,16.19
2022-11-15T10:18:17.849Z,16.38
2022-11-15T10:20:47.930Z,16.54
2022-11-15T10:23:15.290Z,16.45
2022-11-15T10:25:41.682Z,16.54
2022-11-15T10:28:17.613Z,16.72
2022-11-15T10:30:46.224Z,16.66
2022-11-15T10:33:27.112Z,16.67
2022-11-15T10:36:12.332Z,16.63
2022-11-15T10:38:50.961Z,16.48
2022-11-15T10:41:18.719Z,16.58
2022-11-15T10:43:45.374Z,16.65
2022-11-15T10:46:45.578Z,16.66
2022-11-15T10:49:14.246Z,16.67
2022-11-15T10:51:42.507Z,16.78
2022-11-15T10:54:12.334Z,16.73
2022-11-15T10:56:40.533Z,16.72
2022-11-15T10:59:09.065Z,16.79
2022-11-15T11:01:35.547Z,16.55
2022-11-15T11:04:03.290Z,16.80
2022-11-15T11:06:29.746Z,16.65
2022-11-15T11:08:56.143Z,16.41
2022-11-15T11:11:22.822Z,16.35
2022-11-15T11:13:49.248Z,16.12
2022-11-15T11:16:15.640Z,16.17
2022-11-15T11:18:57.317Z,16.03
2022-11-15T11:21:31.930Z,16.16
2022-11-15T11:24:04.366Z,16.07
2022-11-15T11:26:33.850Z,15.95
2022-11-15T11:29:05.931Z,15.91
2022-11-15T11:31:35.342Z,15.97
2022-11-15T11:34:01.715Z,15.95
2022-11-15T11:36:36.072Z,15.98
2022-11-15T11:39:14.635Z,15.91
2022-11-15T11:42:10.375Z,16.12
2022-11-15T11:44:39.985Z,16.12
2022-11-15T11:47:13.075Z,16.37
2022-11-15T11:49:40.446Z,16.27
2022-11-15T11:52:10.076Z,16.36
2022-11-15T11:54:48.409Z,16.39
2022-11-15T11:57:22.707Z,16.45
2022-11-15T11:59:49.081Z,16.62
2022-11-15T12:02:17.799Z,16.50
2022-11-15T12:04:45.580Z,16.55
2022-11-15T12:07:12.072Z,16.58
2022-11-15T12:09:47.539Z,16.55
2022-11-15T12:12:19.379Z,16.46
2022-11-15T12:14:56.963Z,16.67
2022-11-15T12:17:27.405Z,16.58
2022-11-15T12:19:57.318Z,16.65
2022-11-15T12:22:24.893Z,16.87
2022-11-15T12:24:53.215Z,16.82
2022-11-15T12:27:26.357Z,16.75
2022-11-15T12:29:54.522Z,16.79
2022-11-15T12:32:47.436Z,16.73
2022-11-15T12:35:43.378Z,16.75
2022-11-15T12:38:10.632Z,16.64
2022-11-15T12:40:41.370Z,16.47
2022-11-15T12:43:27.761Z,16.44
2022-11-15T12:45:54.240Z,16.55
2022-11-15T12:48:40.760Z,16.51
2022-11-15T12:51:07.193Z,16.43
2022-11-15T12:53:34.166Z,16.27
2022-11-15T12:56:13.025Z,16.19
2022-11-15T12:58:42.458Z,16.19
2022-11-15T13:01:09.073Z,16.34
2022-11-15T13:03:35.776Z,16.22
2022-11-15T13:06:03.902Z,16.24
2022-11-15T13:08:49.294Z,16.34
2022-11-15T13:11:57.494Z,16.33
2022-11-15T13:14:41.774Z,16.36
2022-11-15T13:17:20.674Z,16.22
2022-11-15T13:19:48.252Z,16.27
2022-11-15T13:22:33.891Z,16.20
2022-11-15T13:25:02.110Z,16.22
2022-11-15T13:27:28.633Z,16.11
2022-11-15T13:29:55.341Z,16.26
2022-11-15T13:32:21.794Z,16.14
2022-11-15T13:34:51.940Z,16.24
2022-11-15T13:37:22.057Z,16.22
2022-11-15T13:39:49.202Z,16.29
2022-11-15T13:42:16.396Z,16.08
2022-11-15T13:44:56.028Z,15.97
2022-11-15T13:47:22.559Z,15.99
2022-11-15T13:49:49.089Z,15.83
2022-11-15T13:52:17.287Z,15.78
2022-11-15T13:54:46.915Z,15.79
2022-11-15T13:57:23.109Z,15.71
2022-11-15T13:59:50.624Z,15.77
2022-11-15T14:02:18.311Z,15.98
2022-11-15T14:04:49.323Z,15.77
2022-11-15T14:07:17.357Z,15.87
2022-11-15T14:09:46.192Z,15.71
2022-11-15T14:12:30.280Z,15.80
2022-11-15T14:14:57.287Z,15.68
2022-11-15T14:17:29.828Z,15.82
2022-11-15T14:19:56.696Z,15.67
2022-11-15T14:22:26.368Z,15.71
2022-11-15T14:25:16.395Z,15.54
2022-11-15T14:27:43.626Z,15.67
2022-11-15T14:30:13.902Z,15.62
2022-11-15T14:32:45.077Z,15.50
2022-11-15T14:35:14.031Z,15.35
2022-11-15T14:37:40.463Z,15.17
2022-11-15T14:40:07.270Z,15.08
2022-11-15T14:42:33.713Z,15.00
2022-11-15T14:45:00.286Z,14.69
2022-11-15T14:47:26.798Z,14.52
2022-11-15T14:49:53.263Z,14.51
2022-11-15T14:52:25.233Z,14.46
2022-11-15T14:54:56.163Z,14.47
2022-11-15T14:57:22.728Z,14.41
2022-11-15T14:59:49.180Z,14.39
2022-11-15T15:02:19.958Z,14.40
2022-11-15T15:04:46.658Z,14.44
2022-11-15T15:07:13.611Z,14.42
2022-11-15T15:09:40.327Z,14.44
2022-11-15T15:12:11.915Z,14.46
2022-11-15T15:14:38.485Z,14.60
2022-11-15T15:17:05.742Z,14.73
2022-11-15T15:19:32.292Z,14.54
2022-11-15T15:21:58.813Z,14.53
2022-11-15T15:24:25.253Z,14.25
2022-11-15T15:26:51.674Z,14.39
2022-11-15T15:29:18.052Z,14.35
2022-11-15T15:31:44.473Z,14.52
2022-11-15T15:34:16.457Z,14.48
2022-11-15T15:36:43.458Z,14.51
2022-11-15T15:39:10.809Z,14.41
2022-11-15T15:41:37.220Z,14.44
2022-11-15T15:44:03.620Z,14.37
2022-11-15T15:46:30.144Z,14.23
2022-11-15T15:48:56.566Z,14.26
2022-11-15T15:51:23.009Z,14.32
2022-11-15T15:53:49.429Z,14.14
2022-11-15T15:56:15.900Z,14.06
2022-11-15T15:58:42.332Z,14.08
2022-11-15T16:01:08.924Z,14.09
2022-11-15T16:03:35.487Z,14.10
2022-11-15T16:06:02.102Z,14.14
2022-11-15T16:08:42.496Z,14.14
2022-11-15T16:11:14.415Z,14.19
2022-11-15T16:13:40.916Z,14.15
2022-11-15T16:16:08.843Z,14.04
2022-11-15T16:18:35.524Z,13.99
2022-11-15T16:21:02.403Z,14.08
2022-11-15T16:23:28.853Z,14.04
2022-11-15T16:25:56.615Z,14.01
2022-11-15T16:28:25.015Z,14.06
2022-11-15T16:31:00.588Z,14.14
2022-11-15T16:33:27.159Z,14.02
2022-11-15T16:35:53.683Z,14.01
2022-11-15T16:38:21.032Z,14.11
2022-11-15T16:40:47.672Z,14.28
2022-11-15T16:43:14.588Z,14.13
2022-11-15T16:45:41.421Z,14.19
2022-11-15T16:48:16.670Z,14.08
2022-11-15T16:50:43.138Z,14.28
2022-11-15T16:53:09.625Z,14.27
2022-11-15T16:55:36.348Z,14.19
2022-11-15T16:58:02.935Z,14.25
2022-11-15T17:00:29.480Z,14.22
2022-11-15T17:02:56.212Z,14.20
2022-11-15T17:05:23.275Z,14.13
2022-11-15T17:07:50.522Z,14.11
2022-11-15T17:10:16.915Z,14.22
2022-11-15T17:12:43.350Z,14.25
2022-11-15T17:15:11.259Z,14.25
2022-11-15T17:17:37.800Z,14.31
2022-11-15T17:20:09.875Z,14.21
2022-11-15T17:22:36.726Z,14.30
2022-11-15T17:25:03.560Z,14.25
2022-11-15T17:27:30.438Z,14.23
2022-11-15T17:29:56.985Z,14.00
2022-11-15T17:32:23.748Z,14.13
2022-11-15T17:34:50.254Z,14.15
2022-11-15T17:37:16.737Z,14.08
2022-11-15T17:39:43.245Z,14.03
2022-11-15T17:42:09.787Z,14.08
2022-11-15T17:44:36.257Z,14.08
2022-11-15T17:47:02.777Z,14.12
2022-11-15T17:49:29.944Z,13.90
2022-11-15T17:51:56.822Z,13.98
2022-11-15T17:54:23.427Z,14.02
2022-11-15T17:56:49.890Z,13.93
2022-11-15T17:59:21.195Z,13.89
2022-11-15T18:01:48.169Z,13.96
2022-11-15T18:04:15.383Z,13.94
2022-11-15T18:06:42.200Z,13.97
2022-11-15T18:09:08.794Z,14.04
2022-11-15T18:11:38.340Z,13.98
2022-11-15T18:14:06.174Z,13.92
2022-11-15T18:16:33.658Z,13.91
2022-11-15T18:19:00.419Z,13.84
2022-11-15T18:21:28.266Z,13.81
2022-11-15T18:23:56.721Z,13.84
2022-11-15T18:26:27.349Z,13.90
2022-11-15T18:28:55.347Z,13.89
2022-11-15T18:31:23.069Z,13.97
2022-11-15T18:33:50.053Z,13.96
2022-11-15T18:36:17.845Z,14.00
2022-11-15T18:38:44.311Z,14.04
2022-11-15T18:41:10.798Z,14.06
2022-11-15T18:43:37.612Z,14.15
2022-11-15T18:46:04.853Z,14.07
2022-11-15T18:48:31.735Z,13.99
2022-11-15T18:51:05.095Z,14.00
2022-11-15T18:53:32.588Z,14.17
2022-11-15T18:56:02.570Z,13.99
2022-11-15T18:58:32.765Z,14.09
2022-11-15T19:01:02.841Z,14.10
2022-11-15T19:03:37.062Z,13.95
2022-11-15T19:06:07.607Z,13.88
2022-11-15T19:08:35.525Z,13.83
2022-11-15T19:11:03.319Z,13.67
2022-11-15T19:13:30.057Z,13.61
2022-11-15T19:15:57.660Z,13.65
2022-11-15T19:18:24.085Z,13.71
2022-11-15T19:20:50.622Z,13.75
2022-11-15T19:23:17.116Z,13.89
2022-11-15T19:25:43.605Z,13.53
2022-11-15T19:28:11.787Z,13.52
2022-11-15T19:30:38.258Z,13.46
2022-11-15T19:33:04.663Z,13.51
2022-11-15T19:35:31.291Z,13.62
2022-11-15T19:37:57.795Z,13.58
2022-11-15T19:40:24.197Z,13.54
2022-11-15T19:42:50.643Z,13.50
2022-11-15T19:45:17.178Z,13.45
2022-11-15T19:47:43.657Z,13.36
2022-11-15T19:50:10.596Z,13.43
2022-11-15T19:52:37.070Z,13.39
2022-11-15T19:55:03.603Z,13.39
2022-11-15T19:57:30.044Z,13.40
2022-11-15T19:59:56.467Z,13.42
2022-11-15T20:02:22.905Z,13.33
2022-11-15T20:04:49.348Z,13.33
2022-11-15T20:07:15.947Z,13.29
2022-11-15T20:09:42.538Z,13.36
2022-11-15T20:12:09.015Z,13.43
2022-11-15T20:14:35.648Z,13.49
2022-11-15T20:17:02.124Z,13.42
2022-11-15T20:19:28.646Z,13.39
2022-11-15T20:21:55.387Z,13.33
2022-11-15T20:24:21.882Z,13.50
2022-11-15T20:26:48.351Z,13.38
2022-11-15T20:29:14.745Z,13.43
2022-11-15T20:31:41.163Z,13.40
2022-11-15T20:34:07.644Z,13.38
2022-11-15T20:36:34.400Z,13.28
2022-11-15T20:39:01.028Z,13.25
2022-11-15T20:41:27.830Z,13.30
2022-11-15T20:43:54.425Z,13.25
2022-11-15T20:46:21.142Z,13.23
2022-11-15T20:48:48.086Z,13.27
2022-11-15T20:51:15.680Z,13.32
2022-11-15T20:53:42.858Z,13.47
2022-11-15T20:56:13.885Z,13.36
2022-11-15T20:58:40.504Z,13.33
2022-11-15T21:01:07.758Z,13.49
2022-11-15T21:03:35.336Z,13.39
2022-11-15T21:06:01.939Z,13.33
2022-11-15T21:08:28.381Z,13.24
2022-11-15T21:11:13.551Z,13.23
2022-11-15T21:13:40.009Z,13.19
2022-11-15T21:16:06.745Z,13.22
2022-11-15T21:18:33.523Z,13.18
2022-11-15T21:21:09.396Z,13.20
2022-11-15T21:23:36.541Z,13.25
2022-11-15T21:26:03.281Z,13.20
2022-11-15T21:28:29.705Z,13.23
2022-11-15T21:30:56.893Z,13.20
2022-11-15T21:33:23.903Z,13.14
2022-11-15T21:35:51.395Z,13.25
2022-11-15T21:38:18.277Z,13.26
2022-11-15T21:40:44.780Z,13.23
2022-11-15T21:43:11.287Z,13.28
2022-11-15T21:45:38.188Z,13.32
2022-11-15T21:48:04.808Z,13.21
2022-11-15T21:50:31.180Z,13.25
2022-11-15T21:52:57.609Z,13.35
2022-11-15T21:55:24.147Z,13.29
2022-11-15T21:57:50.706Z,13.33
2022-11-15T22:00:36.263Z,13.26
2022-11-15T22:03:02.727Z,13.16
2022-11-15T22:05:29.479Z,13.13
2022-11-15T22:07:55.904Z,13.31
2022-11-15T22:10:22.395Z,13.26
2022-11-15T22:12:48.794Z,13.32
2022-11-15T22:15:15.290Z,13.19
2022-11-15T22:18:00.275Z,13.21
2022-11-15T22:20:44.196Z,13.41
2022-11-15T22:23:11.157Z,13.22
2022-11-15T22:25:37.611Z,13.13
2022-11-15T22:28:04.121Z,13.21
2022-11-15T22:30:30.673Z,13.16
2022-11-15T22:32:57.094Z,13.18
2022-11-15T22:35:23.539Z,13.14
2022-11-15T22:37:50.386Z,12.78
2022-11-15T22:40:20.237Z,12.90
2022-11-15T22:42:46.700Z,13.04
2022-11-15T22:45:13.289Z,13.02
2022-11-15T22:47:40.251Z,12.96
2022-11-15T22:50:06.869Z,13.11
2022-11-15T22:52:33.333Z,13.05
2022-11-15T22:54:59.712Z,13.05
2022-11-15T22:57:26.186Z,13.08
2022-11-15T22:59:52.590Z,13.03
2022-11-15T23:02:19.083Z,13.12
2022-11-15T23:04:45.791Z,13.11
2022-11-15T23:07:12.519Z,13.23
2022-11-15T23:09:39.206Z,13.21
2022-11-15T23:12:24.457Z,13.30
2022-11-15T23:14:50.835Z,13.27
2022-11-15T23:17:17.428Z,13.09
2022-11-15T23:19:43.885Z,13.16
2022-11-15T23:22:29.119Z,13.14
2022-11-15T23:24:56.469Z,13.17
2022-11-15T23:27:23.918Z,13.14
2022-11-15T23:30:08.992Z,13.18
2022-11-15T23:32:54.137Z,13.20
2022-11-15T23:35:21.120Z,13.19
2022-11-15T23:37:47.555Z,13.18
2022-11-15T23:40:13.977Z,13.08
2022-11-15T23:42:40.400Z,13.15
2022-11-15T23:45:06.983Z,13.13
2022-11-15T23:47:33.427Z,13.11
2022-11-15T23:49:59.816Z,13.08
2022-11-15T23:52:26.314Z,13.05
2022-11-15T23:54:52.780Z,13.09
2022-11-15T23:57:19.231Z,13.11
2022-11-15T23:59:45.690Z,13.24
